Elbow Lake, Minnesota
Current Conditions -  °F | °C
As of 6:56 AM on Saturday 25 Oct 2014 (Local Time) from KY63 Reporting Station
Clear Clear  
Wind Chill: 36°   Ceiling: Unl
Heat Index: 41°   Visibility: 10mi
Dew Point: 32°   Wind: 8mph
Humidity: 71%   Direction: 310°NW
Pressure: 30.06"   Gusts: NA
Location:  45.99°N, 95.98°W
Report Text: KY63 251156Z AUTO 31007KT 10SM CLR 05/00 A3006 RMK AO2 T00500002 10110 20050
Loading
Personal Weather Stations






























Interactive Weather Map
Tropical Storm Tracking
New forecast layout! Learn more

10-Day Weather Forecast

Advertisements
Track Severe Weather on mobile